createdAt,value
2023-04-21T00:00:56.456Z,101696.41
2023-04-21T00:06:01.568Z,101692.59
2023-04-21T00:11:04.582Z,101689.81
2023-04-21T00:16:09.168Z,101690.56
2023-04-21T00:21:12.161Z,101683.59
2023-04-21T00:26:16.649Z,101685.63
2023-04-21T00:31:25.431Z,101685.63
2023-04-21T00:36:28.592Z,101677.34
2023-04-21T00:41:31.829Z,101675.94
2023-04-21T00:46:36.489Z,101680.78
2023-04-21T00:51:39.299Z,101676.38
2023-04-21T00:56:42.087Z,101665.72
2023-04-21T01:01:46.399Z,101664.72
2023-04-21T01:06:51.003Z,101665.97
2023-04-21T01:12:13.275Z,101666.56
2023-04-21T01:17:18.798Z,101660.44
2023-04-21T01:22:24.931Z,101657.41
2023-04-21T01:27:27.878Z,101651.34
2023-04-21T01:32:31.529Z,101656.69
2023-04-21T01:37:36.283Z,101662.16
2023-04-21T01:42:42.587Z,101649.19
2023-04-21T01:47:46.001Z,101652.75
2023-04-21T01:52:51.017Z,101644.91
2023-04-21T01:57:53.770Z,101647.06
2023-04-21T02:02:56.740Z,101642.69
2023-04-21T02:08:00.977Z,101640.50
2023-04-21T02:13:03.904Z,101635.19
2023-04-21T02:18:08.289Z,101647.78
2023-04-21T02:23:12.976Z,101633.84
2023-04-21T02:28:15.936Z,101621.13
2023-04-21T02:33:18.679Z,101627.84
2023-04-21T02:38:22.875Z,101626.16
2023-04-21T02:43:25.975Z,101625.78
2023-04-21T02:48:28.693Z,101628.44
2023-04-21T02:53:32.975Z,101631.59
2023-04-21T02:58:36.042Z,101634.03
2023-04-21T03:03:38.968Z,101636.16
2023-04-21T03:08:43.196Z,101633.22
2023-04-21T03:13:46.119Z,101641.91
2023-04-21T03:18:48.860Z,101630.78
2023-04-21T03:23:54.051Z,101629.34
2023-04-21T03:28:56.835Z,101631.69
2023-04-21T03:34:00.054Z,101622.84
2023-04-21T03:39:16.922Z,101617.22
2023-04-21T03:44:22.512Z,101628.22
2023-04-21T03:49:25.545Z,101622.44
2023-04-21T03:54:29.651Z,101624.63
2023-04-21T03:59:32.411Z,101620.66
2023-04-21T04:04:35.486Z,101619.50
2023-04-21T04:09:39.676Z,101623.97
2023-04-21T04:14:42.427Z,101618.09
2023-04-21T04:19:45.275Z,101613.78
2023-04-21T04:24:49.381Z,101622.34
2023-04-21T04:29:53.124Z,101619.88
2023-04-21T04:34:57.441Z,101617.75
2023-04-21T04:40:01.652Z,101612.59
2023-04-21T04:45:05.904Z,101612.56
2023-04-21T04:50:09.191Z,101619.38
2023-04-21T04:55:13.624Z,101608.72
2023-04-21T05:00:16.752Z,101604.53
2023-04-21T05:05:20.333Z,101610.13
2023-04-21T05:10:24.901Z,101616.31
2023-04-21T05:15:27.703Z,101611.78
2023-04-21T05:20:30.531Z,101616.91
2023-04-21T05:25:34.885Z,101626.38
2023-04-21T05:30:37.657Z,101615.19
2023-04-21T05:35:40.710Z,101634.69
2023-04-21T05:40:45.359Z,101621.38
2023-04-21T05:45:48.153Z,101615.88
2023-04-21T05:50:50.921Z,101616.47
2023-04-21T05:55:54.985Z,101616.78
2023-04-21T06:00:59.775Z,101617.28
2023-04-21T06:06:04.296Z,101606.63
2023-04-21T06:11:08.572Z,101595.81
2023-04-21T06:16:11.509Z,101598.75
2023-04-21T06:21:14.394Z,101597.84
2023-04-21T06:26:23.650Z,101591.38
2023-04-21T06:31:27.110Z,101579.84
2023-04-21T06:36:29.905Z,101584.34
2023-04-21T06:41:35.124Z,101584.25
2023-04-21T06:46:38.043Z,101565.63
2023-04-21T06:51:40.943Z,101574.38
2023-04-21T06:56:45.165Z,101570.47
2023-04-21T07:01:49.063Z,101572.38
2023-04-21T07:06:51.997Z,101562.34
2023-04-21T07:11:56.501Z,101559.31
2023-04-21T07:16:59.502Z,101555.28
2023-04-21T07:22:02.376Z,101551.13
2023-04-21T07:27:07.262Z,101550.94
2023-04-21T07:32:10.417Z,101560.84
2023-04-21T07:37:13.477Z,101548.44
2023-04-21T07:42:19.036Z,101549.13
2023-04-21T07:47:21.963Z,101547.38
2023-04-21T07:52:24.932Z,101538.25
2023-04-21T07:57:29.202Z,101544.09
2023-04-21T08:02:32.043Z,101537.94
2023-04-21T08:07:34.915Z,101536.72
2023-04-21T08:12:39.253Z,101538.97
2023-04-21T08:17:42.191Z,101543.47
2023-04-21T08:22:47.374Z,101534.38
2023-04-21T08:27:53.823Z,101544.19
2023-04-21T08:32:56.690Z,101534.97
2023-04-21T08:37:59.432Z,101537.25
2023-04-21T08:43:03.656Z,101530.38
2023-04-21T08:48:07.763Z,101517.41
2023-04-21T08:53:14.707Z,101523.31
2023-04-21T08:58:18.953Z,101514.25
2023-04-21T09:03:26.263Z,101511.69
2023-04-21T09:08:30.476Z,101511.19
2023-04-21T09:13:35.965Z,101509.22
2023-04-21T09:18:40.404Z,101514.63
2023-04-21T09:23:44.564Z,101509.47
2023-04-21T09:28:50.234Z,101510.16
2023-04-21T09:33:59.645Z,101510.66
2023-04-21T09:44:12.843Z,101491.53
2023-04-21T09:49:18.490Z,101484.75
2023-04-21T09:59:31.912Z,101478.13
2023-04-21T10:04:36.177Z,101472.34
2023-04-21T10:09:44.084Z,101461.94
2023-04-21T10:14:52.205Z,101456.09
2023-04-21T10:19:57.148Z,101459.03
2023-04-21T10:25:02.123Z,101459.59
2023-04-21T10:30:22.481Z,101437.59
2023-04-21T10:35:26.077Z,101436.56
2023-04-21T10:40:44.318Z,101423.03
2023-04-21T10:45:49.459Z,101431.19
2023-04-21T10:50:52.909Z,101412.91
2023-04-21T10:55:56.156Z,101404.88
2023-04-21T11:01:03.323Z,101401.84
2023-04-21T11:06:15.666Z,101402.63
2023-04-21T11:11:23.693Z,101386.25
2023-04-21T11:16:28.115Z,101382.59
2023-04-21T11:21:31.089Z,101368.63
2023-04-21T11:26:34.602Z,101372.06
2023-04-21T11:31:40.511Z,101378.47
2023-04-21T11:36:45.369Z,101356.66
2023-04-21T11:41:49.935Z,101354.38
2023-04-21T11:46:54.290Z,101337.16
2023-04-21T11:51:57.675Z,101329.81
2023-04-21T11:57:02.897Z,101332.69
2023-04-21T12:02:14.156Z,101324.00
2023-04-21T12:07:23.989Z,101310.25
2023-04-21T12:12:27.998Z,101296.38
2023-04-21T12:17:38.899Z,101302.97
2023-04-21T12:22:41.688Z,101295.00
2023-04-21T12:27:49.981Z,101299.94
2023-04-21T12:32:55.765Z,101291.78
2023-04-21T12:37:58.835Z,101297.03
2023-04-21T12:43:01.654Z,101294.06
2023-04-21T12:48:06.655Z,101288.28
2023-04-21T12:53:09.496Z,101276.13
2023-04-21T12:58:12.726Z,101279.84
2023-04-21T13:03:16.944Z,101264.78
2023-04-21T13:08:19.967Z,101258.88
2023-04-21T13:13:22.796Z,101252.03
2023-04-21T13:18:27.040Z,101249.16
2023-04-21T13:23:30.349Z,101248.47
2023-04-21T13:28:33.318Z,101247.63
2023-04-21T13:33:37.643Z,101228.78
2023-04-21T13:38:40.945Z,101222.53
2023-04-21T13:43:43.845Z,101213.13
2023-04-21T13:48:48.104Z,101199.09
2023-04-21T13:53:50.909Z,101192.06
2023-04-21T13:58:55.102Z,101190.72
2023-04-21T14:03:59.476Z,101184.88
2023-04-21T14:09:02.438Z,101173.44
2023-04-21T14:14:09.565Z,101164.78
2023-04-21T14:19:15.495Z,101162.69
2023-04-21T14:24:18.400Z,101155.34
2023-04-21T14:29:21.324Z,101141.94
2023-04-21T14:34:25.811Z,101136.06
2023-04-21T14:39:28.625Z,101130.53
2023-04-21T14:44:31.400Z,101133.91
2023-04-21T14:49:36.109Z,101139.09
2023-04-21T14:54:39.357Z,101131.47
2023-04-21T14:59:43.737Z,101120.78
2023-04-21T15:04:48.312Z,101100.69
2023-04-21T15:09:51.382Z,101108.53
2023-04-21T15:14:54.237Z,101099.06
2023-04-21T15:19:58.523Z,101084.97
2023-04-21T15:25:01.362Z,101087.59
2023-04-21T15:30:04.825Z,101076.38
2023-04-21T15:35:09.902Z,101073.09
2023-04-21T15:40:13.259Z,101068.06
2023-04-21T15:45:17.819Z,101066.03
2023-04-21T15:50:23.223Z,101050.22
2023-04-21T15:55:27.850Z,101056.41
2023-04-21T16:00:30.690Z,101054.25
2023-04-21T16:05:35.065Z,101051.34
2023-04-21T16:10:38.079Z,101045.38
2023-04-21T16:15:41.331Z,101044.69
2023-04-21T16:20:46.121Z,101026.03
2023-04-21T16:25:49.570Z,101022.72
2023-04-21T16:30:52.378Z,101022.31
2023-04-21T16:35:57.685Z,101009.44
2023-04-21T16:41:00.684Z,101010.75
2023-04-21T16:46:03.502Z,101007.00
2023-04-21T16:51:07.838Z,100999.25
2023-04-21T16:56:10.993Z,101004.28
2023-04-21T17:01:14.581Z,100996.19
2023-04-21T17:06:20.971Z,100999.84
2023-04-21T17:11:23.730Z,100990.97
2023-04-21T17:16:26.600Z,100989.97
2023-04-21T17:21:31.709Z,100988.28
2023-04-21T17:26:34.663Z,100993.69
2023-04-21T17:31:37.953Z,100990.94
2023-04-21T17:36:44.220Z,100983.31
2023-04-21T17:41:48.374Z,100993.44
2023-04-21T17:46:52.271Z,100986.81
2023-04-21T17:51:56.611Z,100987.06
2023-04-21T17:56:59.518Z,100984.44
2023-04-21T18:02:02.437Z,100993.13
2023-04-21T18:07:07.131Z,100995.38
2023-04-21T18:12:10.058Z,100990.19
2023-04-21T18:17:14.702Z,100999.72
2023-04-21T18:22:20.778Z,101003.41
2023-04-21T18:27:23.677Z,101002.34
2023-04-21T18:32:26.732Z,101000.78
2023-04-21T18:37:30.997Z,101002.66
2023-04-21T18:42:34.639Z,101008.34
2023-04-21T18:47:39.218Z,101002.53
2023-04-21T18:52:43.514Z,101003.09
2023-04-21T18:57:46.389Z,100998.25
2023-04-21T19:02:51.099Z,101005.81
2023-04-21T19:07:55.393Z,101007.44
2023-04-21T19:12:58.201Z,101006.59
2023-04-21T19:18:01.110Z,101001.22
2023-04-21T19:23:05.658Z,101009.44
2023-04-21T19:28:08.628Z,101009.69
2023-04-21T19:33:11.496Z,101009.91
2023-04-21T19:38:16.037Z,101013.22
2023-04-21T19:43:20.224Z,101010.47
2023-04-21T19:48:23.973Z,101008.81
2023-04-21T19:53:28.216Z,101009.47
2023-04-21T19:58:40.151Z,101005.91
2023-04-21T20:03:43.722Z,101001.53
2023-04-21T20:08:48.094Z,101008.13
2023-04-21T20:13:51.179Z,101001.22
2023-04-21T20:18:54.023Z,101011.28
2023-04-21T20:23:58.266Z,101007.06
2023-04-21T20:29:01.103Z,101003.69
2023-04-21T20:34:03.969Z,100999.06
2023-04-21T20:39:08.412Z,101003.94
2023-04-21T20:44:12.711Z,101015.66
2023-04-21T20:49:15.539Z,101011.53
2023-04-21T20:54:19.705Z,101004.47
2023-04-21T20:59:22.446Z,101005.44
2023-04-21T21:04:25.260Z,101004.53
2023-04-21T21:09:29.512Z,101016.16
2023-04-21T21:14:32.410Z,101010.50
2023-04-21T21:19:35.236Z,101000.59
2023-04-21T21:24:39.448Z,101003.63
2023-04-21T21:29:44.258Z,101012.47
2023-04-21T21:34:47.476Z,101010.88
2023-04-21T21:39:52.611Z,101003.31
2023-04-21T21:44:55.403Z,101005.41
2023-04-21T21:49:59.063Z,100999.22
2023-04-21T21:55:03.160Z,100996.41
2023-04-21T22:00:08.156Z,101002.13
2023-04-21T22:05:11.611Z,100999.44
2023-04-21T22:10:15.905Z,101006.06
2023-04-21T22:15:19.630Z,100997.81
2023-04-21T22:20:22.805Z,101003.91
2023-04-21T22:25:27.710Z,100995.84
2023-04-21T22:30:30.671Z,100993.47
2023-04-21T22:35:33.412Z,100989.34
2023-04-21T22:40:37.695Z,100995.94
2023-04-21T22:45:41.232Z,100992.22
2023-04-21T22:50:44.815Z,100985.75
2023-04-21T22:55:49.108Z,100981.63
2023-04-21T23:00:51.997Z,100985.75
2023-04-21T23:05:54.816Z,100975.72
2023-04-21T23:10:59.095Z,100969.88
2023-04-21T23:16:02.130Z,100972.81
2023-04-21T23:21:05.121Z,100962.78
2023-04-21T23:26:09.243Z,100959.00
2023-04-21T23:31:12.656Z,100951.19
2023-04-21T23:36:15.405Z,100950.09
2023-04-21T23:41:19.486Z,100945.00
2023-04-21T23:46:22.224Z,100948.28
2023-04-21T23:51:25.137Z,100938.47
2023-04-21T23:56:29.343Z,100935.00
